Tryon, OK (74875)

10:40 PM CST on November 17, 2017 (GMT -0600)
Rural | | Change Station
Active Advisory: Wind Advisory

Elev 941 ft 36.02 °N, 97.05 °W | Updated 44 seconds ago

Partly Cloudy
Partly Cloudy
76.3 °F
Feels Like 78 °F
N
6.7
Wind Variable Wind from NNW
Gusts 11.2 mph

Today
High -- | Low -- °F
--% Chance of Precip.
Yesterday
High -- | Low -- °F
Precip. -- in
Pressure 29.51 in
Visibility 10.0 miles
Clouds Clear
Heat Index 78 °F
Dew Point 58 °F
Humidity 53%
Rainfall 0.01 in
Snow Depth Not available.
7:06 AM 5:19 PM
Waning Crescent, 0% visible
METAR KCUH 180435Z AUTO 21017G21KT 10SM CLR 24/15 A2951 RMK AO2 T02360147
Pressure 29.51 in
Visibility 10.0 miles
Clouds Clear
Heat Index 78 °F
Dew Point 58 °F
Humidity 53%
Rainfall 0.01 in
Snow Depth Not available.
7:06 AM 5:19 PM
Waning Crescent, 0% visible
METAR KCUH 180435Z AUTO 21017G21KT 10SM CLR 24/15 A2951 RMK AO2 T02360147

Get Your Daily Forecast Email!

Thanks for signing up!

Be on the lookout for a verification email in your inbox.

You'll start receiving severe weather alerts in your inbox..

×

10-Day Weather Forecast

Almanac

Astronomy

Nov. 17, 2017 Rise Set
Actual Time
Civil Twilight
Nautical Twilight
Astronomical Twilight
Moon
Length of Visible Light
Length of Day
Tomorrow will be .
, % of the Moon is Illuminated

Today's Extremes

State Highs State Lows

Community

WunderPhotos

Category 6

Welcome to Category 6. This is the collective home for Weather Underground's featured writeups by Dr. Jeff Masters (right), Bob Henson (left), Chris Burt, and other regular contributors.

Nearby

Air Quality

  Air Quality AQ Index Pollutant
Not available.

Snow Depth

Station Depth Elevation

Earthquake Activity

City Distance Mag. Time & Date
Minimum magnitude displayed is 2.5.

Coastal Water Temperatures

Place Temperature

Stations

Nearby Weather Stations

Station Location Temp. Windchill Dew Point Humidity Wind Precip. Elev Updated Type
                   

Watches & Warnings

Wind Advisory
Issued: 10:02 PM CST Nov. 17, 2017 – National Weather Service

... Wind Advisory remains in effect until 3 PM CST Saturday...

* timing... early Saturday morning through early Saturday
afternoon.

* Winds... northwest 20 to 30 mph with gusts up to 45 mph.

* Impacts... gusty winds will blow around unsecured objects. Tree
limbs could be blown down and a few power outages may result.

Precautionary/preparedness actions...

A Wind Advisory means that winds of 35 mph are expected. Winds
this strong can make driving difficult, especially for high
profile vehicles. Use extra caution.